Time;durP1;ratioP1;P1;durP2;ratioP2;P2;SDS_P1;SDS_P2;PMS_P1;PMS_P2;Temp;Humidity;BMP_temperature;BMP_pressure;BME280_temperature;BME280_humidity;BME280_pressure;Samples;Min_cycle;Max_cycle;Signal;HPM_P1;HPM_P2
2023/06/17 00:00:20;;;;;;;;;0.00;0.00;;;;;-146.67;25.77;73350.13;5121269;28;61863;-77
2023/06/17 00:02:46;;;;;;;;;0.00;0.00;;;;;-146.67;100.00;57155.34;5114427;28;61834;-77
2023/06/17 00:05:11;;;;;;;;;0.00;0.00;;;;;-146.67;100.00;57155.34;5124200;28;8773;-77
2023/06/17 00:07:36;;;;;;;;;0.00;0.00;;;;;-146.67;100.00;57155.34;5121900;28;44736;-77
2023/06/17 00:10:02;;;;;;;;;0.00;0.00;;;;;-146.67;25.38;73360.09;5121579;28;61938;-77
2023/06/17 00:12:31;;;;;;;;;0.00;0.00;;;;;-146.67;100.00;57155.34;5115379;28;61344;-77
2023/06/17 00:15:02;;;;;;;;;0.00;0.00;;;;;-146.67;100.00;57155.34;5120207;27;61138;-77
2023/06/17 00:17:32;;;;;;;;;0.00;0.00;;;;;-146.67;25.93;73380.06;5100937;27;61840;-77
2023/06/17 00:20:11;;;;;;;;;0.00;0.00;;;;;-146.67;100.00;57155.34;5130058;27;62678;-77
2023/06/17 00:22:39;;;;;;;;;0.00;0.00;;;;;-146.67;25.97;73378.06;5114938;27;62198;-77
2023/06/17 00:25:07;;;;;;;;;0.00;0.00;;;;;-146.67;25.78;73390.03;5103782;27;62038;-78
2023/06/17 00:27:33;;;;;;;;;0.00;0.00;;;;;-146.67;25.93;73398.03;5100207;27;61955;-78
2023/06/17 00:29:59;;;;;;;;;0.00;0.00;;;;;-146.67;25.79;73400.03;5064839;28;63928;-78
2023/06/17 00:32:29;;;;;;;;;0.00;0.00;;;;;-146.67;26.27;73406.00;5064588;28;62347;-78
2023/06/17 00:34:54;;;;;;;;;0.00;0.00;;;;;-146.67;26.24;73402.00;5097812;28;61963;-78
2023/06/17 00:37:20;;;;;;;;;0.00;0.00;;;;;-146.67;25.88;73415.97;5062744;28;61987;-78
2023/06/17 00:39:46;;;;;;;;;0.00;0.00;;;;;-146.67;25.92;73406.00;5081976;28;62067;-78
2023/06/17 00:42:11;;;;;;;;;0.00;0.00;;;;;-146.67;100.00;57155.34;5080333;27;61785;-78
2023/06/17 00:44:39;;;;;;;;;0.00;0.00;;;;;-146.67;26.01;73419.97;5091996;27;61812;-77
2023/06/17 00:47:06;;;;;;;;;0.00;0.00;;;;;-146.67;26.00;73425.97;5083186;28;62117;-78
2023/06/17 00:49:36;;;;;;;;;0.00;0.00;;;;;-146.67;25.83;73423.97;5083669;27;62076;-77
2023/06/17 00:52:04;;;;;;;;;0.00;0.00;;;;;-146.67;100.00;57155.34;5088880;27;61740;-77
2023/06/17 00:54:31;;;;;;;;;0.00;0.00;;;;;-146.67;25.71;73412.00;5083870;28;61792;-78
2023/06/17 00:56:59;;;;;;;;;0.00;0.00;;;;;-146.67;25.91;73414.00;5082986;28;61841;-77
2023/06/17 00:59:25;;;;;;;;;0.00;0.00;;;;;-146.67;25.88;73408.00;5073359;27;63006;-77
2023/06/17 01:01:50;;;;;;;;;0.00;0.00;;;;;-146.67;25.90;73412.00;5084074;28;61740;-78
2023/06/17 01:04:15;;;;;;;;;0.00;0.00;;;;;-146.67;25.93;73392.03;5083908;28;61935;-78
2023/06/17 01:06:55;;;;;;;;;0.00;0.00;;;;;-146.67;25.84;73400.03;5084194;28;61758;-78
2023/06/17 01:09:27;;;;;;;;;0.00;0.00;;;;;-146.67;26.23;73402.00;5082727;28;62098;-77
2023/06/17 01:11:56;;;;;;;;;0.00;0.00;;;;;-146.67;26.16;73402.00;5096072;27;61924;-78
2023/06/17 01:14:22;;;;;;;;;0.00;0.00;;;;;-146.67;26.20;73396.03;5096504;27;61930;-78
2023/06/17 01:16:53;;;;;;;;;0.00;0.00;;;;;-146.67;100.00;57155.34;5108730;27;61910;-78
2023/06/17 01:19:21;;;;;;;;;0.00;0.00;;;;;-146.67;100.00;57155.34;5104238;28;8801;-78
2023/06/17 01:21:53;;;;;;;;;0.00;0.00;;;;;-146.67;26.13;73394.03;5082216;28;62029;-77
2023/06/17 01:24:29;;;;;;;;;0.00;0.00;;;;;-146.67;100.00;57155.34;5119170;27;61812;-78
2023/06/17 01:26:59;;;;;;;;;0.00;0.00;;;;;-146.67;100.00;57155.34;5104404;28;8789;-78
2023/06/17 01:29:29;;;;;;;;;0.00;0.00;;;;;-146.67;100.00;57155.34;5103113;28;44819;-77
2023/06/17 01:31:58;;;;;;;;;0.00;0.00;;;;;-146.67;100.00;57155.34;5100935;28;61188;-78
2023/06/17 01:34:36;;;;;;;;;0.00;0.00;;;;;-146.67;25.93;73380.06;5092906;28;61267;-78
2023/06/17 01:37:08;;;;;;;;;0.00;0.00;;;;;-146.67;100.00;57155.34;5134120;27;44682;-78
2023/06/17 01:39:36;;;;;;;;;0.00;0.00;;;;;-146.67;100.00;57155.34;5102143;28;9994;-77
2023/06/17 01:42:05;;;;;;;;;0.00;0.00;;;;;-146.67;100.00;57155.34;5103847;28;8824;-78
2023/06/17 01:44:33;;;;;;;;;0.00;0.00;;;;;-146.67;100.00;57155.34;5102882;28;8773;-78
2023/06/17 01:46:59;;;;;;;;;0.00;0.00;;;;;-146.67;100.00;57155.34;5085787;28;61957;-78
2023/06/17 01:49:24;;;;;;;;;0.00;0.00;;;;;-146.67;100.00;57155.34;5135615;27;10362;-78
2023/06/17 01:51:50;;;;;;;;;0.00;0.00;;;;;-146.67;100.00;57155.34;5100043;28;42362;-78
2023/06/17 01:54:15;;;;;;;;;0.00;0.00;;;;;-146.67;100.00;57155.34;5103507;28;8793;-78
2023/06/17 01:56:41;;;;;;;;;0.00;0.00;;;;;-146.67;100.00;57155.34;5103865;28;8834;-78
2023/06/17 01:59:06;;;;;;;;;0.00;0.00;;;;;-146.67;100.00;57155.34;5152907;27;9980;-78
2023/06/17 02:01:32;;;;;;;;;0.00;0.00;;;;;-146.67;100.00;57155.34;5124505;28;8807;-78
2023/06/17 02:03:57;;;;;;;;;0.00;0.00;;;;;-146.67;100.00;57155.34;5123982;28;8786;-78
2023/06/17 02:06:23;;;;;;;;;0.00;0.00;;;;;-146.67;100.00;57155.34;5122336;28;8795;-78
2023/06/17 02:08:48;;;;;;;;;0.00;0.00;;;;;-146.67;100.00;57155.34;5123729;28;8894;-78
2023/06/17 02:11:14;;;;;;;;;0.00;0.00;;;;;-146.67;100.00;57155.34;5122364;28;8805;-78
2023/06/17 02:13:40;;;;;;;;;0.00;0.00;;;;;-146.67;100.00;57155.34;5124267;27;8794;-78
2023/06/17 02:16:05;;;;;;;;;0.00;0.00;;;;;-146.67;100.00;57155.34;5122705;28;8872;-78
2023/06/17 02:18:32;;;;;;;;;0.00;0.00;;;;;-146.67;100.00;57155.34;5116956;28;61856;-78
2023/06/17 02:20:59;;;;;;;;;0.00;0.00;;;;;-146.67;26.42;73412.00;5101166;28;61809;-78
2023/06/17 02:23:25;;;;;;;;;0.00;0.00;;;;;-146.67;100.00;57155.34;5093897;28;61770;-78
2023/06/17 02:25:51;;;;;;;;;0.00;0.00;;;;;-146.67;100.00;57155.34;5122479;28;8864;-78
2023/06/17 02:28:17;;;;;;;;;0.00;0.00;;;;;-146.67;100.00;57155.34;5123826;28;8799;-78
2023/06/17 02:30:42;;;;;;;;;0.00;0.00;;;;;-146.67;100.00;57155.34;5123834;28;9458;-78
2023/06/17 02:33:07;;;;;;;;;0.00;0.00;;;;;-146.67;100.00;57155.34;5122748;28;8803;-77
2023/06/17 02:35:33;;;;;;;;;0.00;0.00;;;;;-146.67;100.00;57155.34;5122900;28;8787;-78
2023/06/17 02:37:59;;;;;;;;;0.00;0.00;;;;;-146.67;100.00;57155.34;5121645;28;9954;-78
2023/06/17 02:40:24;;;;;;;;;0.00;0.00;;;;;-146.67;100.00;57155.34;5099273;28;62119;-78
2023/06/17 02:42:50;;;;;;;;;0.00;0.00;;;;;-146.67;100.00;57155.34;5123640;28;8781;-78
2023/06/17 02:45:15;;;;;;;;;0.00;0.00;;;;;-146.67;100.00;57155.34;5123387;28;8788;-78
2023/06/17 02:47:42;;;;;;;;;0.00;0.00;;;;;-146.67;26.22;73374.06;5119101;28;61962;-78
2023/06/17 02:50:08;;;;;;;;;0.00;0.00;;;;;-146.67;26.60;73392.03;5082828;27;61967;-78
2023/06/17 02:52:40;;;;;;;;;0.00;0.00;;;;;-146.67;26.65;73396.03;5081365;28;62055;-78
2023/06/17 02:55:06;;;;;;;;;0.00;0.00;;;;;-146.67;100.00;57155.34;5104300;28;62062;-78
2023/06/17 02:57:31;;;;;;;;;0.00;0.00;;;;;-146.67;100.00;57155.34;5123264;28;8795;-78
2023/06/17 02:59:57;;;;;;;;;0.00;0.00;;;;;-146.67;100.00;57155.34;5121900;28;9578;-78
2023/06/17 03:02:22;;;;;;;;;0.00;0.00;;;;;-146.67;26.43;73372.06;5115369;28;61854;-78
2023/06/17 03:04:48;;;;;;;;;0.00;0.00;;;;;-146.67;26.66;73378.06;5104451;28;61760;-78
2023/06/17 03:07:15;;;;;;;;;0.00;0.00;;;;;-146.67;26.61;73384.06;5102224;28;64416;-78
2023/06/17 03:09:41;;;;;;;;;0.00;0.00;;;;;-146.67;100.00;57155.34;5122650;28;47258;-78
2023/06/17 03:12:06;;;;;;;;;0.00;0.00;;;;;-146.67;100.00;57155.34;5125611;28;8799;-78
2023/06/17 03:14:32;;;;;;;;;0.00;0.00;;;;;-146.67;100.00;57155.34;5125512;28;8951;-78
2023/06/17 03:16:58;;;;;;;;;0.00;0.00;;;;;-146.67;100.00;57155.34;5125256;28;10108;-78
2023/06/17 03:19:24;;;;;;;;;0.00;0.00;;;;;-146.67;100.00;57155.34;5120421;28;62601;-78
2023/06/17 03:21:50;;;;;;;;;0.00;0.00;;;;;-146.67;100.00;57155.34;5118697;28;61171;-78
2023/06/17 03:24:16;;;;;;;;;0.00;0.00;;;;;-146.67;100.00;57155.34;5125568;28;8988;-78
2023/06/17 03:26:41;;;;;;;;;0.00;0.00;;;;;-146.67;100.00;57155.34;5123197;28;61861;-78
2023/06/17 03:29:07;;;;;;;;;0.00;0.00;;;;;-146.67;100.00;57155.34;5126895;28;8798;-78
2023/06/17 03:31:32;;;;;;;;;0.00;0.00;;;;;-146.67;100.00;57155.34;5126499;28;8798;-78
2023/06/17 03:33:58;;;;;;;;;0.00;0.00;;;;;-146.67;100.00;57155.34;5124620;28;8811;-78
2023/06/17 03:36:28;;;;;;;;;0.00;0.00;;;;;-146.67;100.00;57155.34;5125011;28;9824;-77
2023/06/17 03:38:54;;;;;;;;;0.00;0.00;;;;;-146.67;100.00;57155.34;5124481;28;8794;-77
2023/06/17 03:41:20;;;;;;;;;0.00;0.00;;;;;-146.67;100.00;57155.34;5126608;28;8767;-78
2023/06/17 03:43:46;;;;;;;;;0.00;0.00;;;;;-146.67;100.00;57155.34;5125140;28;8822;-78
2023/06/17 03:46:11;;;;;;;;;0.00;0.00;;;;;-146.67;100.00;57155.34;5124993;28;10358;-78
2023/06/17 03:48:36;;;;;;;;;0.00;0.00;;;;;-146.67;100.00;57155.34;5124139;28;8827;-78
2023/06/17 03:51:02;;;;;;;;;0.00;0.00;;;;;-146.67;100.00;57155.34;5125164;28;8818;-78
2023/06/17 03:53:28;;;;;;;;;0.00;0.00;;;;;-146.67;100.00;57155.34;5126460;27;8775;-78
2023/06/17 03:55:53;;;;;;;;;0.00;0.00;;;;;-146.67;100.00;57155.34;5126180;27;8776;-78
2023/06/17 03:58:19;;;;;;;;;0.00;0.00;;;;;-146.67;100.00;57155.34;5117251;27;8805;-77
2023/06/17 04:00:44;;;;;;;;;0.00;0.00;;;;;-146.67;100.00;57155.34;5121839;28;8818;-78
2023/06/17 04:03:11;;;;;;;;;0.00;0.00;;;;;-146.67;100.00;57155.34;5124480;28;8787;-78
2023/06/17 04:05:37;;;;;;;;;0.00;0.00;;;;;-146.67;100.00;57155.34;5124068;28;57717;-78
2023/06/17 04:08:04;;;;;;;;;0.00;0.00;;;;;-146.67;100.00;57155.34;5125372;27;8731;-77
2023/06/17 04:10:29;;;;;;;;;0.00;0.00;;;;;-146.67;100.00;57155.34;5126020;28;8755;-78
2023/06/17 04:12:55;;;;;;;;;0.00;0.00;;;;;-146.67;26.82;73396.03;5098954;28;61809;-77
2023/06/17 04:15:20;;;;;;;;;0.00;0.00;;;;;-146.67;100.00;57155.34;5099993;28;63474;-78
2023/06/17 04:17:46;;;;;;;;;0.00;0.00;;;;;-146.67;100.00;57155.34;5124004;28;8818;-78
2023/06/17 04:20:12;;;;;;;;;0.00;0.00;;;;;-146.67;100.00;57155.34;5124177;28;9676;-78
2023/06/17 04:22:41;;;;;;;;;0.00;0.00;;;;;-146.67;100.00;57155.34;5125930;27;8801;-78
2023/06/17 04:25:08;;;;;;;;;0.00;0.00;;;;;-146.67;100.00;57155.34;5125886;28;8771;-78
2023/06/17 04:27:34;;;;;;;;;0.00;0.00;;;;;-146.67;100.00;57155.34;5124666;28;8843;-78
2023/06/17 04:30:01;;;;;;;;;0.00;0.00;;;;;-146.67;100.00;57155.34;5141559;27;8803;-78
2023/06/17 04:32:26;;;;;;;;;0.00;0.00;;;;;-146.67;100.00;57155.34;5125558;28;8762;-78
2023/06/17 04:34:53;;;;;;;;;0.00;0.00;;;;;-146.67;100.00;57155.34;5125291;28;8817;-78
2023/06/17 04:37:19;;;;;;;;;0.00;0.00;;;;;-146.67;100.00;57155.34;5125790;28;8819;-77
2023/06/17 04:39:45;;;;;;;;;0.00;0.00;;;;;-146.67;100.00;57155.34;5123565;28;8822;-78
2023/06/17 04:42:12;;;;;;;;;0.00;0.00;;;;;-146.67;100.00;57155.34;5124220;28;8759;-78
2023/06/17 04:44:38;;;;;;;;;0.00;0.00;;;;;-146.67;100.00;57155.34;5125434;28;8779;-78
2023/06/17 04:47:06;;;;;;;;;0.00;0.00;;;;;-146.67;100.00;57155.34;5123608;28;8775;-78
2023/06/17 04:49:38;;;;;;;;;0.00;0.00;;;;;-146.67;100.00;57155.34;5123667;28;8854;-78
2023/06/17 04:52:05;;;;;;;;;0.00;0.00;;;;;-146.67;100.00;57155.34;5125233;28;8735;-78
2023/06/17 04:54:31;;;;;;;;;0.00;0.00;;;;;-146.67;100.00;57155.34;5124073;28;10002;-78
2023/06/17 04:56:57;;;;;;;;;0.00;0.00;;;;;-146.67;100.00;57155.34;5125084;28;8805;-77
2023/06/17 04:59:22;;;;;;;;;0.00;0.00;;;;;-146.67;100.00;57155.34;5123657;28;8842;-78
2023/06/17 05:01:48;;;;;;;;;0.00;0.00;;;;;-146.67;100.00;57155.34;5123836;28;8790;-78
2023/06/17 05:04:13;;;;;;;;;0.00;0.00;;;;;-146.67;100.00;57155.34;5123119;28;10190;-78
2023/06/17 05:06:39;;;;;;;;;0.00;0.00;;;;;-146.67;100.00;57155.34;5125216;28;8795;-78
2023/06/17 05:09:04;;;;;;;;;0.00;0.00;;;;;-146.67;100.00;57155.34;5123211;28;8840;-78
2023/06/17 05:11:29;;;;;;;;;0.00;0.00;;;;;-146.67;100.00;57155.34;5124893;28;8802;-78
2023/06/17 05:13:55;;;;;;;;;0.00;0.00;;;;;-146.67;100.00;57155.34;5124575;28;8839;-78
2023/06/17 05:16:20;;;;;;;;;0.00;0.00;;;;;-146.67;100.00;57155.34;5124864;27;8791;-78
2023/06/17 05:18:46;;;;;;;;;0.00;0.00;;;;;-146.67;100.00;57155.34;5123123;28;8864;-78
2023/06/17 05:21:11;;;;;;;;;0.00;0.00;;;;;-146.67;100.00;57155.34;5122973;28;8848;-78
2023/06/17 05:23:36;;;;;;;;;0.00;0.00;;;;;-146.67;100.00;57155.34;5123836;28;9100;-78
2023/06/17 05:26:02;;;;;;;;;0.00;0.00;;;;;-146.67;100.00;57155.34;5124485;28;9578;-78
2023/06/17 05:28:27;;;;;;;;;0.00;0.00;;;;;-146.67;100.00;57155.34;5124452;27;8798;-78
2023/06/17 05:30:53;;;;;;;;;0.00;0.00;;;;;-146.67;100.00;57155.34;5132308;27;8800;-78
2023/06/17 05:33:18;;;;;;;;;0.00;0.00;;;;;-146.67;100.00;57155.34;5143640;27;9892;-78
2023/06/17 05:35:44;;;;;;;;;0.00;0.00;;;;;-146.67;100.00;57155.34;5145290;27;8830;-78
2023/06/17 05:38:09;;;;;;;;;0.00;0.00;;;;;-146.67;100.00;57155.34;5144535;27;8895;-78
2023/06/17 05:40:34;;;;;;;;;0.00;0.00;;;;;-146.67;100.00;57155.34;5145123;27;8820;-78
2023/06/17 05:43:00;;;;;;;;;0.00;0.00;;;;;-146.67;100.00;57155.34;5144863;27;8773;-78
2023/06/17 05:45:25;;;;;;;;;0.00;0.00;;;;;-146.67;100.00;57155.34;5143576;27;8844;-78
2023/06/17 05:47:51;;;;;;;;;0.00;0.00;;;;;-146.67;100.00;57155.34;5145013;27;8845;-78
2023/06/17 05:50:16;;;;;;;;;0.00;0.00;;;;;-146.67;100.00;57155.34;5143482;27;8891;-78
2023/06/17 05:52:42;;;;;;;;;0.00;0.00;;;;;-146.67;100.00;57155.34;5143655;27;10102;-78
2023/06/17 05:55:09;;;;;;;;;0.00;0.00;;;;;-146.67;100.00;57155.34;5145178;27;8912;-78
2023/06/17 05:57:35;;;;;;;;;0.00;0.00;;;;;-146.67;100.00;57155.34;5141225;27;8802;-78
2023/06/17 06:00:01;;;;;;;;;0.00;0.00;;;;;-146.67;100.00;57155.34;5124246;28;8857;-78
2023/06/17 06:02:26;;;;;;;;;0.00;0.00;;;;;-146.67;100.00;57155.34;5122990;28;9876;-78
2023/06/17 06:04:51;;;;;;;;;0.00;0.00;;;;;-146.67;100.00;57155.34;5122557;28;8852;-78
2023/06/17 06:07:17;;;;;;;;;0.00;0.00;;;;;-146.67;100.00;57155.34;5122471;28;8948;-78
2023/06/17 06:09:42;;;;;;;;;0.00;0.00;;;;;-146.67;100.00;57155.34;5123951;28;8802;-78
2023/06/17 06:12:08;;;;;;;;;0.00;0.00;;;;;-146.67;100.00;57155.34;5123903;28;8795;-78
2023/06/17 06:14:33;;;;;;;;;0.00;0.00;;;;;-146.67;100.00;57155.34;5122660;28;8795;-78
2023/06/17 06:16:59;;;;;;;;;0.00;0.00;;;;;-146.67;100.00;57155.34;5134809;27;9571;-78
2023/06/17 06:19:24;;;;;;;;;0.00;0.00;;;;;-146.67;100.00;57155.34;5142693;27;8842;-78
2023/06/17 06:21:49;;;;;;;;;0.00;0.00;;;;;-146.67;100.00;57155.34;5143277;27;9836;-78
2023/06/17 06:24:15;;;;;;;;;0.00;0.00;;;;;-146.67;100.00;57155.34;5144642;27;8819;-78
2023/06/17 06:26:40;;;;;;;;;0.00;0.00;;;;;-146.67;100.00;57155.34;5142650;27;8800;-78
2023/06/17 06:29:07;;;;;;;;;0.00;0.00;;;;;-146.67;100.00;57155.34;5143273;27;8812;-81
2023/06/17 06:31:32;;;;;;;;;0.00;0.00;;;;;-146.67;100.00;57155.34;5142797;27;10024;-80
2023/06/17 06:33:58;;;;;;;;;0.00;0.00;;;;;-146.67;100.00;57155.34;5142939;27;8800;-81
2023/06/17 06:36:23;;;;;;;;;0.00;0.00;;;;;-146.67;100.00;57155.34;5143989;27;8785;-80
2023/06/17 06:38:49;;;;;;;;;0.00;0.00;;;;;-146.67;100.00;57155.34;5134425;27;8831;-80
2023/06/17 06:41:14;;;;;;;;;0.00;0.00;;;;;-146.67;100.00;57155.34;5120985;28;10011;-80
2023/06/17 06:43:39;;;;;;;;;0.00;0.00;;;;;-146.67;100.00;57155.34;5122420;27;8787;-80
2023/06/17 06:46:05;;;;;;;;;0.00;0.00;;;;;-146.67;100.00;57155.34;5122835;27;8806;-80
2023/06/17 06:48:31;;;;;;;;;0.00;0.00;;;;;-146.67;100.00;57155.34;5122735;27;8902;-78
2023/06/17 06:50:56;;;;;;;;;0.00;0.00;;;;;-146.67;100.00;57155.34;5121635;28;10173;-80
2023/06/17 06:53:23;;;;;;;;;0.00;0.00;;;;;-146.67;100.00;57155.34;5121478;28;8818;-80
2023/06/17 06:55:49;;;;;;;;;0.00;0.00;;;;;-146.67;100.00;57155.34;5122512;27;9827;-80
2023/06/17 06:58:15;;;;;;;;;0.00;0.00;;;;;-146.67;100.00;57155.34;5138272;27;9286;-80
2023/06/17 07:00:40;;;;;;;;;0.00;0.00;;;;;-146.67;100.00;57155.34;5129722;27;9944;-80
2023/06/17 07:03:06;;;;;;;;;0.00;0.00;;;;;-146.67;100.00;57155.34;5121393;28;8815;-80
2023/06/17 07:05:31;;;;;;;;;0.00;0.00;;;;;-146.67;100.00;57155.34;5121025;28;8802;-80
2023/06/17 07:07:57;;;;;;;;;0.00;0.00;;;;;-146.67;100.00;57155.34;5122020;27;8779;-80
2023/06/17 07:10:23;;;;;;;;;0.00;0.00;;;;;-146.67;100.00;57155.34;5121282;28;10019;-81
2023/06/17 07:12:48;;;;;;;;;0.00;0.00;;;;;-146.67;100.00;57155.34;5122511;27;8874;-81
2023/06/17 07:15:14;;;;;;;;;0.00;0.00;;;;;-146.67;100.00;57155.34;5122424;27;8921;-85
2023/06/17 07:17:39;;;;;;;;;0.00;0.00;;;;;-146.67;100.00;57155.34;5129752;27;8795;-81
2023/06/17 07:20:05;;;;;;;;;0.00;0.00;;;;;-146.67;100.00;57155.34;5117041;27;10019;-81
2023/06/17 07:22:31;;;;;;;;;0.00;0.00;;;;;-146.67;100.00;57155.34;5101085;28;8797;-81
2023/06/17 07:24:56;;;;;;;;;0.00;0.00;;;;;-146.67;100.00;57155.34;5101800;28;8793;-81
2023/06/17 07:27:21;;;;;;;;;0.00;0.00;;;;;-146.67;100.00;57155.34;5102504;28;8786;-81
2023/06/17 07:29:47;;;;;;;;;0.00;0.00;;;;;-146.67;100.00;57155.34;5099900;28;9916;-80
2023/06/17 07:32:12;;;;;;;;;0.00;0.00;;;;;-146.67;100.00;57155.34;5101940;28;8797;-80
2023/06/17 07:34:37;;;;;;;;;0.00;0.00;;;;;-146.67;100.00;57155.34;5101905;28;8888;-81
2023/06/17 07:37:03;;;;;;;;;0.00;0.00;;;;;-146.67;100.00;57155.34;5102536;28;8825;-81
2023/06/17 07:39:29;;;;;;;;;0.00;0.00;;;;;-146.67;100.00;57155.34;5108640;28;8868;-81
2023/06/17 07:41:54;;;;;;;;;0.00;0.00;;;;;-146.67;100.00;57155.34;5121073;28;8888;-81
2023/06/17 07:44:20;;;;;;;;;0.00;0.00;;;;;-146.67;100.00;57155.34;5121453;28;8866;-81
2023/06/17 07:46:45;;;;;;;;;0.00;0.00;;;;;-146.67;100.00;57155.34;5121595;28;8779;-84
2023/06/17 07:49:11;;;;;;;;;0.00;0.00;;;;;-146.67;100.00;57155.34;5124555;28;10384;-85
2023/06/17 07:51:43;;;;;;;;;0.00;0.00;;;;;-146.67;100.00;57155.34;5126358;27;9619;-82
2023/06/17 07:54:09;;;;;;;;;0.00;0.00;;;;;-146.67;100.00;57155.34;5124425;27;8791;-80
2023/06/17 07:56:34;;;;;;;;;0.00;0.00;;;;;-146.67;100.00;57155.34;5141747;27;8798;-80
2023/06/17 07:59:00;;;;;;;;;0.00;0.00;;;;;-146.67;100.00;57155.34;5129426;27;9979;-81
2023/06/17 08:01:25;;;;;;;;;0.00;0.00;;;;;-146.67;100.00;57155.34;5123655;27;8854;-79
2023/06/17 08:03:51;;;;;;;;;0.00;0.00;;;;;-146.67;100.00;57155.34;5124138;28;8822;-77
2023/06/17 08:06:16;;;;;;;;;0.00;0.00;;;;;-146.67;100.00;57155.34;5135905;27;8788;-78
2023/06/17 08:08:42;;;;;;;;;0.00;0.00;;;;;-146.67;100.00;57155.34;5145422;27;8855;-78
2023/06/17 08:11:08;;;;;;;;;0.00;0.00;;;;;-146.67;100.00;57155.34;5132052;27;8874;-79
2023/06/17 08:13:33;;;;;;;;;0.00;0.00;;;;;-146.67;100.00;57155.34;5141185;27;8803;-78
2023/06/17 08:15:59;;;;;;;;;0.00;0.00;;;;;-146.67;100.00;57155.34;5125369;28;8803;-78
2023/06/17 08:18:25;;;;;;;;;0.00;0.00;;;;;-146.67;100.00;57155.34;5123477;28;10032;-79
2023/06/17 08:20:50;;;;;;;;;0.00;0.00;;;;;-146.67;100.00;57155.34;5130432;27;8827;-79
2023/06/17 08:23:16;;;;;;;;;0.00;0.00;;;;;-146.67;100.00;57155.34;5136642;27;8900;-79
2023/06/17 08:25:42;;;;;;;;;0.00;0.00;;;;;-146.67;100.00;57155.34;5123631;28;8813;-84
2023/06/17 08:28:07;;;;;;;;;0.00;0.00;;;;;-146.67;100.00;57155.34;5143388;27;8835;-83
2023/06/17 08:30:33;;;;;;;;;0.00;0.00;;;;;-146.67;100.00;57155.34;5130406;27;8834;-83
2023/06/17 08:32:58;;;;;;;;;0.00;0.00;;;;;-146.67;100.00;57155.34;5103270;28;8812;-83
2023/06/17 08:35:24;;;;;;;;;0.00;0.00;;;;;-146.67;100.00;57155.34;5107417;28;8811;-79
2023/06/17 08:37:49;;;;;;;;;0.00;0.00;;;;;-146.67;100.00;57155.34;5123665;28;8803;-79
2023/06/17 08:40:17;;;;;;;;;0.00;0.00;;;;;-146.67;100.00;57155.34;5123068;28;8899;-79
2023/06/17 08:42:43;;;;;;;;;0.00;0.00;;;;;-146.67;100.00;57155.34;5125235;27;8775;-77
2023/06/17 08:45:09;;;;;;;;;0.00;0.00;;;;;-146.67;100.00;57155.34;5123805;28;9562;-80
2023/06/17 08:47:35;;;;;;;;;0.00;0.00;;;;;-146.67;100.00;57155.34;5124032;28;10266;-80
2023/06/17 08:50:02;;;;;;;;;0.00;0.00;;;;;-146.67;100.00;57155.34;5123778;28;8791;-80
2023/06/17 08:52:28;;;;;;;;;0.00;0.00;;;;;-146.67;100.00;57155.34;5123589;28;8743;-79
2023/06/17 08:54:55;;;;;;;;;0.00;0.00;;;;;-146.67;100.00;57155.34;5123945;28;8719;-80
2023/06/17 08:57:20;;;;;;;;;0.00;0.00;;;;;-146.67;100.00;57155.34;5123311;27;8780;-79
2023/06/17 08:59:46;;;;;;;;;0.00;0.00;;;;;-146.67;100.00;57155.34;5122701;28;8931;-79
2023/06/17 09:02:14;;;;;;;;;0.00;0.00;;;;;-146.67;100.00;57155.34;5124858;27;8797;-79
2023/06/17 09:04:40;;;;;;;;;0.00;0.00;;;;;-146.67;100.00;57155.34;5123346;28;8792;-80
2023/06/17 09:07:08;;;;;;;;;0.00;0.00;;;;;-146.67;100.00;57155.34;5123035;28;9991;-79
2023/06/17 09:09:33;;;;;;;;;0.00;0.00;;;;;-146.67;100.00;57155.34;5124368;27;8730;-79
2023/06/17 09:12:04;;;;;;;;;0.00;0.00;;;;;-146.67;100.00;57155.34;5123533;28;8808;-80
2023/06/17 09:14:30;;;;;;;;;0.00;0.00;;;;;-146.67;100.00;57155.34;5123628;28;8801;-80
2023/06/17 09:16:56;;;;;;;;;0.00;0.00;;;;;-146.67;100.00;57155.34;5123373;28;9856;-79
2023/06/17 09:19:22;;;;;;;;;0.00;0.00;;;;;-146.67;100.00;57155.34;5122546;28;8757;-79
2023/06/17 09:21:48;;;;;;;;;0.00;0.00;;;;;-146.67;100.00;57155.34;5122764;28;8777;-80
2023/06/17 09:24:13;;;;;;;;;0.00;0.00;;;;;-146.67;100.00;57155.34;5124455;27;8818;-79
2023/06/17 09:26:41;;;;;;;;;0.00;0.00;;;;;-146.67;100.00;57155.34;5122403;28;10033;-79
2023/06/17 09:29:08;;;;;;;;;0.00;0.00;;;;;-146.67;100.00;57155.34;5124300;27;9795;-80
2023/06/17 09:31:51;;;;;;;;;0.00;0.00;;;;;-146.67;100.00;57155.34;5124581;27;8731;-80
2023/06/17 09:35:00;;;;;;;;;0.00;0.00;;;;;-146.67;100.00;57155.34;5123899;28;8800;-81
2023/06/17 09:37:26;;;;;;;;;0.00;0.00;;;;;-146.67;100.00;57155.34;5124618;27;9737;-82
2023/06/17 09:39:51;;;;;;;;;0.00;0.00;;;;;-146.67;100.00;57155.34;5142341;27;8828;-81
2023/06/17 09:42:17;;;;;;;;;0.00;0.00;;;;;-146.67;100.00;57155.34;5139896;27;9556;-82
2023/06/17 09:44:46;;;;;;;;;0.00;0.00;;;;;-146.67;100.00;57155.34;5141108;27;8815;-83
2023/06/17 09:47:12;;;;;;;;;0.00;0.00;;;;;-146.67;100.00;57155.34;5144311;27;8807;-85
2023/06/17 09:49:38;;;;;;;;;0.00;0.00;;;;;-146.67;100.00;57155.34;5140780;27;8899;-77
2023/06/17 09:52:05;;;;;;;;;0.00;0.00;;;;;-146.67;100.00;57155.34;5121551;27;8920;-82
2023/06/17 09:54:32;;;;;;;;;0.00;0.00;;;;;-146.67;100.00;57155.34;5122078;28;9812;-78
2023/06/17 09:57:01;;;;;;;;;0.00;0.00;;;;;-146.67;100.00;57155.34;5123932;27;8743;-78
2023/06/17 09:59:28;;;;;;;;;0.00;0.00;;;;;-146.67;100.00;57155.34;5112949;27;8831;-78
2023/06/17 10:01:54;;;;;;;;;0.00;0.00;;;;;-146.67;100.00;57155.34;5113828;27;8824;-79
2023/06/17 10:04:21;;;;;;;;;0.00;0.00;;;;;-146.67;100.00;57155.34;5121865;27;8889;-79
2023/06/17 10:06:49;;;;;;;;;0.00;0.00;;;;;-146.67;100.00;57155.34;5131278;27;8748;-80
2023/06/17 10:09:15;;;;;;;;;0.00;0.00;;;;;-146.67;100.00;57155.34;5126484;27;8803;-78
2023/06/17 10:11:45;;;;;;;;;0.00;0.00;;;;;-146.67;100.00;57155.34;5130147;27;8815;-78
2023/06/17 10:14:14;;;;;;;;;0.00;0.00;;;;;-146.67;100.00;57155.34;5125123;27;8833;-78
2023/06/17 10:16:48;;;;;;;;;0.00;0.00;;;;;-146.67;100.00;57155.34;5126873;27;10004;-79
2023/06/17 10:19:17;;;;;;;;;0.00;0.00;;;;;-146.67;100.00;57155.34;5125960;27;8802;-79
2023/06/17 10:21:46;;;;;;;;;0.00;0.00;;;;;-146.67;100.00;57155.34;5120671;28;8752;-81
2023/06/17 10:24:13;;;;;;;;;0.00;0.00;;;;;-146.67;100.00;57155.34;5121791;28;8788;-80
2023/06/17 10:26:39;;;;;;;;;0.00;0.00;;;;;-146.67;100.00;57155.34;5121824;28;10056;-78
2023/06/17 10:29:10;;;;;;;;;0.00;0.00;;;;;-146.67;100.00;57155.34;5124257;27;9598;-79
2023/06/17 10:31:38;;;;;;;;;0.00;0.00;;;;;-146.67;100.00;57155.34;5128637;27;8799;-79
2023/06/17 10:34:05;;;;;;;;;0.00;0.00;;;;;-146.67;100.00;57155.34;5142008;27;8795;-79
2023/06/17 10:36:33;;;;;;;;;0.00;0.00;;;;;-146.67;100.00;57155.34;5122557;27;8821;-78
2023/06/17 10:39:06;;;;;;;;;0.00;0.00;;;;;-146.67;100.00;57155.34;5116398;28;8817;-81
2023/06/17 10:41:38;;;;;;;;;0.00;0.00;;;;;-146.67;100.00;57155.34;5100515;28;9802;-81
2023/06/17 10:44:33;;;;;;;;;0.00;0.00;;;;;-146.67;100.00;57155.34;5113068;28;8806;-81
2023/06/17 10:46:58;;;;;;;;;0.00;0.00;;;;;-146.67;100.00;57155.34;5114760;27;9930;-77
2023/06/17 10:49:25;;;;;;;;;0.00;0.00;;;;;-146.67;100.00;57155.34;5119702;28;8799;-82
2023/06/17 10:51:55;;;;;;;;;0.00;0.00;;;;;-146.67;100.00;57155.34;5118809;28;8873;-78
2023/06/17 10:54:28;;;;;;;;;0.00;0.00;;;;;-146.67;100.00;57155.34;5121476;28;8784;-82
2023/06/17 10:56:53;;;;;;;;;0.00;0.00;;;;;-146.67;100.00;57155.34;5120981;28;10304;-81
2023/06/17 10:59:30;;;;;;;;;0.67;0.00;;;;;-146.67;100.00;57155.34;5119462;27;8805;-83
2023/06/17 11:02:03;;;;;;;;;0.00;0.00;;;;;-146.67;100.00;57155.34;5122049;28;8804;-83
2023/06/17 11:04:32;;;;;;;;;0.00;0.00;;;;;-146.67;100.00;57155.34;5121103;28;8821;-83
2023/06/17 11:07:00;;;;;;;;;0.00;0.00;;;;;-146.67;100.00;57155.34;5121174;28;10048;-81
2023/06/17 11:09:26;;;;;;;;;0.00;0.00;;;;;-146.67;100.00;57155.34;5121676;27;8801;-82
2023/06/17 11:11:56;;;;;;;;;0.00;0.00;;;;;-146.67;100.00;57155.34;5121154;28;8824;-83
2023/06/17 11:14:25;;;;;;;;;1.00;0.00;;;;;-146.67;100.00;57155.34;5120989;28;9265;-83